createdAt,value
2016-04-16T00:00:59.524Z,6.5
2016-04-16T00:04:09.799Z,6.5
2016-04-16T00:07:24.371Z,6.5
2016-04-16T00:10:41.207Z,6.4
2016-04-16T00:13:43.653Z,6.4
2016-04-16T00:16:55.849Z,6.4
2016-04-16T00:20:07.576Z,6.4
2016-04-16T00:23:19.712Z,6.4
2016-04-16T00:26:37.017Z,6.3
2016-04-16T00:29:39.087Z,6.4
2016-04-16T00:32:51.407Z,6.4
2016-04-16T00:36:07.353Z,6.4
2016-04-16T00:39:15.176Z,6.4
2016-04-16T00:42:27.512Z,6.4
2016-04-16T00:45:39.926Z,6.4
2016-04-16T00:48:52.201Z,6.4
2016-04-16T00:52:04.662Z,6.4
2016-04-16T00:55:16.767Z,6.3
2016-04-16T00:58:33.868Z,6.3
2016-04-16T01:01:41.032Z,6.3
2016-04-16T01:04:43.463Z,6.2
2016-04-16T01:07:55.392Z,6.2
2016-04-16T01:11:07.650Z,6.2
2016-04-16T01:14:19.943Z,6.2
2016-04-16T01:17:34.215Z,6.2
2016-04-16T01:20:41.239Z,6.2
2016-04-16T01:23:43.373Z,6.2
2016-04-16T01:26:55.505Z,6.2
2016-04-16T01:30:07.545Z,6.1
2016-04-16T01:33:19.743Z,6.1
2016-04-16T01:36:36.782Z,6.1
2016-04-16T01:39:39.056Z,6.1
2016-04-16T01:42:51.110Z,6.1
2016-04-16T01:46:03.057Z,6.1
2016-04-16T01:49:14.849Z,6.1
2016-04-16T01:52:27.028Z,6.1
2016-04-16T01:55:39.209Z,6.1
2016-04-16T01:58:51.467Z,6.1
2016-04-16T02:02:03.849Z,6.1
2016-04-16T02:05:16.161Z,6.1
2016-04-16T02:08:33.263Z,6.1
2016-04-16T02:11:40.647Z,6.1
2016-04-16T02:14:42.920Z,6.1
2016-04-16T02:17:54.943Z,6.1
2016-04-16T02:21:07.061Z,6.1
2016-04-16T02:24:19.324Z,6.1
2016-04-16T02:27:36.535Z,6.1
2016-04-16T02:30:38.590Z,6.1
2016-04-16T02:33:50.504Z,6.1
2016-04-16T02:37:02.575Z,6.1
2016-04-16T02:40:14.773Z,6.1
2016-04-16T02:43:23.718Z,6.1
2016-04-16T02:46:40.978Z,6.1
2016-04-16T02:49:43.338Z,6.1
2016-04-16T02:52:55.392Z,6
2016-04-16T02:56:07.192Z,6
2016-04-16T02:59:17.394Z,6
2016-04-16T03:02:36.487Z,6
2016-04-16T03:05:38.780Z,6
2016-04-16T03:08:51.212Z,6
2016-04-16T03:12:03.472Z,6
2016-04-16T03:15:15.483Z,6
2016-04-16T03:18:27.725Z,6
2016-04-16T03:21:39.920Z,6
2016-04-16T03:24:52.272Z,6
2016-04-16T03:28:04.483Z,6
2016-04-16T03:31:16.385Z,6
2016-04-16T03:34:33.705Z,6
2016-04-16T03:37:40.932Z,6
2016-04-16T03:40:43.143Z,6.1
2016-04-16T03:43:55.543Z,6.1
2016-04-16T03:47:07.784Z,6.1
2016-04-16T03:50:19.655Z,6.2
2016-04-16T03:53:36.913Z,6.2
2016-04-16T03:56:39.093Z,6.2
2016-04-16T03:59:51.272Z,6.2
2016-04-16T04:03:03.280Z,6.2
2016-04-16T04:06:15.307Z,6.2
2016-04-16T04:09:27.518Z,6.3
2016-04-16T04:12:42.839Z,6.3
2016-04-16T04:15:44.972Z,6.3
2016-04-16T04:18:57.198Z,6.4
2016-04-16T04:22:09.254Z,6.4
2016-04-16T04:25:21.546Z,6.4
2016-04-16T04:28:38.350Z,6.4
2016-04-16T04:31:40.562Z,6.5
2016-04-16T04:34:52.680Z,6.5
2016-04-16T04:38:05.875Z,6.6
2016-04-16T04:41:14.307Z,6.6
2016-04-16T04:44:26.659Z,6.6
2016-04-16T04:47:38.792Z,6.6
2016-04-16T04:50:50.597Z,6.7
2016-04-16T04:54:02.809Z,6.7
2016-04-16T04:57:15.288Z,6.8
2016-04-16T05:00:27.358Z,6.9
2016-04-16T05:03:39.273Z,7.1
2016-04-16T05:06:51.624Z,7.2
2016-04-16T05:10:00.698Z,7.3
2016-04-16T05:13:12.847Z,7.4
2016-04-16T05:16:24.732Z,7.4
2016-04-16T05:19:42.115Z,7.4
2016-04-16T05:22:44.671Z,7.6
2016-04-16T05:25:56.961Z,7.7
2016-04-16T05:29:09.265Z,7.9
2016-04-16T05:32:25.855Z,8
2016-04-16T05:35:39.033Z,8.1
2016-04-16T05:38:41.448Z,8.1
2016-04-16T05:41:54.144Z,8.3
2016-04-16T05:45:07.073Z,8.4
2016-04-16T05:48:19.554Z,8.6
2016-04-16T05:51:36.905Z,8.8
2016-04-16T05:54:39.881Z,8.9
2016-04-16T05:57:52.655Z,9.1
2016-04-16T06:01:05.523Z,9.3
2016-04-16T06:04:18.440Z,9.5
2016-04-16T06:07:34.244Z,9.9
2016-04-16T06:10:42.299Z,10.3
2016-04-16T06:13:45.527Z,10.8
2016-04-16T06:16:58.691Z,11.2
2016-04-16T06:20:08.902Z,11.5
2016-04-16T06:23:22.023Z,11.7
2016-04-16T06:26:40.187Z,12.2
2016-04-16T06:29:43.883Z,12.8
2016-04-16T06:32:57.374Z,13.5
2016-04-16T06:36:10.976Z,13.9
2016-04-16T06:39:24.284Z,14.1
2016-04-16T06:42:42.527Z,14.1
2016-04-16T06:45:45.863Z,14.2
2016-04-16T06:48:58.621Z,14
2016-04-16T06:52:11.488Z,13.6
2016-04-16T06:55:22.781Z,13
2016-04-16T06:58:40.257Z,12.5
2016-04-16T07:01:43.406Z,12.3
2016-04-16T07:04:56.602Z,12.1
2016-04-16T07:08:07.203Z,12.1
2016-04-16T07:11:22.183Z,12.2
2016-04-16T07:14:40.019Z,12.6
2016-04-16T07:17:43.418Z,12.8
2016-04-16T07:20:54.284Z,13.3
2016-04-16T07:24:07.511Z,13.6
2016-04-16T07:27:20.975Z,14.4
2016-04-16T07:30:39.187Z,15.2
2016-04-16T07:33:42.992Z,15.9
2016-04-16T07:36:56.469Z,16.4
2016-04-16T07:40:09.929Z,16.9
2016-04-16T07:43:19.234Z,17.6
2016-04-16T07:46:36.965Z,18
2016-04-16T07:49:40.582Z,18.5
2016-04-16T07:52:51.762Z,18.8
2016-04-16T07:56:07.051Z,18.3
2016-04-16T07:59:20.467Z,18.4
2016-04-16T08:02:38.882Z,18.7
2016-04-16T08:05:42.687Z,19.5
2016-04-16T08:08:56.149Z,20
2016-04-16T08:12:09.407Z,19.3
2016-04-16T08:15:22.604Z,18.6
2016-04-16T08:18:40.899Z,18.3
2016-04-16T08:21:44.047Z,17.7
2016-04-16T08:24:57.071Z,17.3
2016-04-16T08:28:08.267Z,16.6
2016-04-16T08:31:23.028Z,15.6
2016-04-16T08:34:40.802Z,14.9
2016-04-16T08:37:43.856Z,14.4
2016-04-16T08:40:56.333Z,13.8
2016-04-16T08:44:09.060Z,13.4
2016-04-16T08:47:21.665Z,13
2016-04-16T08:50:39.001Z,12.7
2016-04-16T08:53:41.884Z,12.6
2016-04-16T08:56:54.689Z,12.5
2016-04-16T09:00:07.180Z,12.4
2016-04-16T09:03:19.939Z,12.2
2016-04-16T09:06:37.450Z,12.1
2016-04-16T09:09:40.286Z,12
2016-04-16T09:12:52.685Z,11.9
2016-04-16T09:16:05.474Z,11.8
2016-04-16T09:19:18.278Z,11.8
2016-04-16T09:22:36.242Z,11.8
2016-04-16T09:25:39.173Z,11.8
2016-04-16T09:28:51.884Z,11.8
2016-04-16T09:32:04.689Z,11.8
2016-04-16T09:35:17.619Z,11.7
2016-04-16T09:38:35.145Z,11.8
2016-04-16T09:41:43.075Z,11.8
2016-04-16T09:44:45.957Z,11.7
2016-04-16T09:47:58.763Z,11.7
2016-04-16T09:51:09.927Z,11.7
2016-04-16T09:54:22.657Z,11.6
2016-04-16T09:57:40.181Z,11.6
2016-04-16T10:00:43.282Z,11.6
2016-04-16T10:03:56.087Z,11.5
2016-04-16T10:07:08.814Z,11.5
2016-04-16T10:10:21.447Z,11.6
2016-04-16T10:13:39.068Z,11.6
2016-04-16T10:16:42.044Z,11.6
2016-04-16T10:19:52.365Z,11.6
2016-04-16T10:23:05.138Z,11.6
2016-04-16T10:26:17.959Z,11.5
2016-04-16T10:29:35.719Z,11.6
2016-04-16T10:32:43.556Z,11.6
2016-04-16T10:35:46.502Z,11.7
2016-04-16T10:38:59.338Z,11.8
2016-04-16T10:42:08.705Z,11.7
2016-04-16T10:45:21.635Z,11.7
2016-04-16T10:48:39.287Z,11.7
2016-04-16T10:51:42.325Z,11.7
2016-04-16T10:54:55.146Z,11.7
2016-04-16T10:58:05.826Z,11.7
2016-04-16T11:01:20.945Z,11.8
2016-04-16T11:04:38.533Z,11.8
2016-04-16T11:07:41.525Z,11.7
2016-04-16T11:10:54.424Z,11.8
2016-04-16T11:14:07.260Z,11.8
2016-04-16T11:17:20.143Z,11.9
2016-04-16T11:20:37.732Z,11.9
2016-04-16T11:23:40.709Z,11.9
2016-04-16T11:26:53.435Z,11.9
2016-04-16T11:30:06.084Z,11.9
2016-04-16T11:33:18.826Z,12
2016-04-16T11:36:36.572Z,12.1
2016-04-16T11:39:39.549Z,12.1
2016-04-16T11:42:52.338Z,12.1
2016-04-16T11:46:04.908Z,12
2016-04-16T11:49:17.385Z,12.2
2016-04-16T11:52:35.403Z,12.3
2016-04-16T11:55:43.532Z,12.4
2016-04-16T11:58:46.509Z,12.4
2016-04-16T12:01:59.466Z,12.4
2016-04-16T12:05:08.757Z,12.4
2016-04-16T12:08:21.756Z,12.4
2016-04-16T12:11:39.305Z,12.3
2016-04-16T12:14:42.346Z,12.2
2016-04-16T12:17:54.200Z,12.2
2016-04-16T12:21:07.051Z,12.2
2016-04-16T12:24:19.997Z,12.2
2016-04-16T12:27:37.867Z,12.3
2016-04-16T12:30:40.875Z,12.3
2016-04-16T12:33:53.883Z,12.3
2016-04-16T12:37:06.657Z,12.3
2016-04-16T12:40:18.493Z,12.2
2016-04-16T12:43:36.160Z,12.2
2016-04-16T12:46:39.090Z,12.2
2016-04-16T12:49:51.817Z,12.3
2016-04-16T12:53:03.044Z,12.5
2016-04-16T12:56:15.739Z,12.5
2016-04-16T12:59:28.516Z,12.5
2016-04-16T13:02:41.180Z,12.6
2016-04-16T13:05:54.094Z,12.9
2016-04-16T13:09:07.024Z,12.9
2016-04-16T13:12:19.938Z,12.9
2016-04-16T13:15:37.856Z,12.9
2016-04-16T13:18:40.786Z,13.1
2016-04-16T13:21:53.575Z,13.1
2016-04-16T13:25:06.223Z,13.2
2016-04-16T13:28:19.153Z,13.2
2016-04-16T13:31:36.727Z,13.1
2016-04-16T13:34:39.719Z,13.1
2016-04-16T13:37:52.430Z,13
2016-04-16T13:41:05.188Z,12.9
2016-04-16T13:44:15.869Z,12.6
2016-04-16T13:47:35.910Z,12.4
2016-04-16T13:50:43.747Z,12.5
2016-04-16T13:53:46.817Z,12.7
2016-04-16T13:56:59.731Z,13.1
2016-04-16T14:00:12.771Z,13.1
2016-04-16T14:03:22.779Z,13
2016-04-16T14:06:42.696Z,12.9
2016-04-16T14:09:45.563Z,12.9
2016-04-16T14:12:58.087Z,12.8
2016-04-16T14:16:10.642Z,12.7
2016-04-16T14:19:23.275Z,12.7
2016-04-16T14:22:41.114Z,12.7
2016-04-16T14:25:43.950Z,12.6
2016-04-16T14:28:56.725Z,12.5
2016-04-16T14:32:09.357Z,12.4
2016-04-16T14:35:26.349Z,12.4
2016-04-16T14:38:40.188Z,12.5
2016-04-16T14:41:43.274Z,12.5
2016-04-16T14:44:54.423Z,12.5
2016-04-16T14:48:07.165Z,12.6
2016-04-16T14:51:20.017Z,12.7
2016-04-16T14:54:37.950Z,12.7
2016-04-16T14:57:41.006Z,12.8
2016-04-16T15:00:53.872Z,12.9
2016-04-16T15:04:06.975Z,12.8
2016-04-16T15:07:19.373Z,12.8
2016-04-16T15:10:36.962Z,12.7
2016-04-16T15:13:39.877Z,12.6
2016-04-16T15:16:52.493Z,12.4
2016-04-16T15:20:05.111Z,12.1
2016-04-16T15:23:17.526Z,11.9
2016-04-16T15:26:34.911Z,11.8
2016-04-16T15:29:42.700Z,11.6
2016-04-16T15:32:45.411Z,11.5
2016-04-16T15:35:55.825Z,11.3
2016-04-16T15:39:08.318Z,11.2
2016-04-16T15:42:20.952Z,11.1
2016-04-16T15:45:37.978Z,11.2
2016-04-16T15:48:40.845Z,11.2
2016-04-16T15:51:51.462Z,11.3
2016-04-16T15:55:06.439Z,11.3
2016-04-16T15:58:19.042Z,11.4
2016-04-16T16:01:36.709Z,11.4
2016-04-16T16:04:39.404Z,11.4
2016-04-16T16:07:55.850Z,11.4
2016-04-16T16:11:04.217Z,11.3
2016-04-16T16:14:16.631Z,11.2
2016-04-16T16:17:28.779Z,11.2
2016-04-16T16:20:41.400Z,11.2
2016-04-16T16:23:54.142Z,11.2
2016-04-16T16:27:06.525Z,11.2
2016-04-16T16:30:18.736Z,11.2
2016-04-16T16:33:36.170Z,11.1
2016-04-16T16:36:43.864Z,11.1
2016-04-16T16:39:46.451Z,11.1
2016-04-16T16:42:58.959Z,11.1
2016-04-16T16:46:11.749Z,11.1
2016-04-16T16:49:24.054Z,11
2016-04-16T16:52:41.689Z,11
2016-04-16T16:55:44.370Z,11.1
2016-04-16T16:58:56.893Z,11.1
2016-04-16T17:02:09.214Z,11
2016-04-16T17:05:21.831Z,11
2016-04-16T17:08:39.483Z,11
2016-04-16T17:11:42.272Z,11.1
2016-04-16T17:14:54.811Z,11.1
2016-04-16T17:18:07.303Z,11
2016-04-16T17:21:19.951Z,10.9
2016-04-16T17:24:37.618Z,10.8
2016-04-16T17:27:40.299Z,10.8
2016-04-16T17:30:52.900Z,10.7
2016-04-16T17:34:05.425Z,10.7
2016-04-16T17:37:18.448Z,10.6
2016-04-16T17:40:27.894Z,10.6
2016-04-16T17:43:40.655Z,10.5
2016-04-16T17:46:52.616Z,10.4
2016-04-16T17:50:05.046Z,10.3
2016-04-16T17:53:17.397Z,10.3
2016-04-16T17:56:34.765Z,10.2
2016-04-16T17:59:42.542Z,10.1
2016-04-16T18:02:45.143Z,10
2016-04-16T18:05:57.558Z,10
2016-04-16T18:09:07.909Z,10
2016-04-16T18:12:22.704Z,10
2016-04-16T18:15:40.121Z,9.9
2016-04-16T18:18:42.864Z,9.9
2016-04-16T18:21:55.215Z,9.8
2016-04-16T18:25:07.521Z,9.7
2016-04-16T18:28:20.060Z,9.7
2016-04-16T18:31:37.630Z,9.6
2016-04-16T18:34:40.173Z,9.6
2016-04-16T18:37:52.681Z,9.6
2016-04-16T18:41:05.236Z,9.6
2016-04-16T18:44:17.915Z,9.5
2016-04-16T18:47:35.548Z,9.4
2016-04-16T18:50:43.246Z,9.3
2016-04-16T18:53:46.161Z,9.3
2016-04-16T18:56:55.841Z,9.3
2016-04-16T19:00:05.224Z,9.2
2016-04-16T19:03:17.935Z,9.2
2016-04-16T19:06:35.366Z,9.1
2016-04-16T19:09:43.126Z,9.1
2016-04-16T19:12:45.743Z,9.1
2016-04-16T19:15:58.455Z,9.1
2016-04-16T19:19:10.994Z,9
2016-04-16T19:22:23.392Z,9
2016-04-16T19:25:40.638Z,8.9
2016-04-16T19:28:43.333Z,8.9
2016-04-16T19:31:55.513Z,8.9
2016-04-16T19:35:07.974Z,8.9
2016-04-16T19:38:18.890Z,8.9
2016-04-16T19:41:35.678Z,8.9
2016-04-16T19:44:43.314Z,8.9
2016-04-16T19:47:45.900Z,8.9
2016-04-16T19:51:02.236Z,8.9
2016-04-16T19:54:10.541Z,8.9
2016-04-16T19:57:23.018Z,8.9
2016-04-16T20:00:40.292Z,8.9
2016-04-16T20:03:42.991Z,8.8
2016-04-16T20:06:55.568Z,8.7
2016-04-16T20:10:07.629Z,8.6
2016-04-16T20:13:20.074Z,8.7
2016-04-16T20:16:36.677Z,8.6
2016-04-16T20:19:39.357Z,8.6
2016-04-16T20:22:51.711Z,8.5
2016-04-16T20:26:04.156Z,8.4
2016-04-16T20:29:16.493Z,8.3
2016-04-16T20:32:28.517Z,8.3
2016-04-16T20:35:40.633Z,8.3
2016-04-16T20:38:49.629Z,8.3
2016-04-16T20:42:01.840Z,8.3
2016-04-16T20:45:11.739Z,8.3
2016-04-16T20:48:21.372Z,8.3
2016-04-16T20:51:38.411Z,8.4
2016-04-16T20:54:40.747Z,8.4
2016-04-16T20:57:52.782Z,8.3
2016-04-16T21:01:02.756Z,8.2
2016-04-16T21:04:15.112Z,8.2
2016-04-16T21:07:27.316Z,8.2
2016-04-16T21:10:39.700Z,8.2
2016-04-16T21:13:52.208Z,8.2
2016-04-16T21:17:04.488Z,8.1
2016-04-16T21:20:16.717Z,8.1
2016-04-16T21:23:28.944Z,8
2016-04-16T21:26:43.689Z,8
2016-04-16T21:29:46.247Z,8
2016-04-16T21:32:57.552Z,8
2016-04-16T21:36:09.685Z,7.9
2016-04-16T21:39:22.176Z,7.9
2016-04-16T21:42:39.513Z,7.8
2016-04-16T21:45:42.271Z,7.8
2016-04-16T21:48:54.640Z,7.8
2016-04-16T21:52:07.353Z,7.8
2016-04-16T21:55:19.297Z,7.9
2016-04-16T21:58:36.509Z,7.9
2016-04-16T22:01:43.908Z,7.9
2016-04-16T22:04:46.308Z,8
2016-04-16T22:07:58.786Z,8
2016-04-16T22:11:11.246Z,8
2016-04-16T22:14:23.693Z,8
2016-04-16T22:17:40.701Z,8
2016-04-16T22:20:43.271Z,7.9
2016-04-16T22:23:55.649Z,7.9
2016-04-16T22:27:07.938Z,7.9
2016-04-16T22:30:20.618Z,7.8
2016-04-16T22:33:36.798Z,7.8
2016-04-16T22:36:44.181Z,7.8
2016-04-16T22:39:46.660Z,7.8
2016-04-16T22:42:59.293Z,7.8
2016-04-16T22:46:11.754Z,7.7
2016-04-16T22:49:24.403Z,7.7
2016-04-16T22:52:41.817Z,7.7
2016-04-16T22:55:44.341Z,7.7
2016-04-16T22:58:55.039Z,7.7
2016-04-16T23:02:09.501Z,7.7
2016-04-16T23:05:22.149Z,7.8
2016-04-16T23:08:39.657Z,7.8
2016-04-16T23:11:42.196Z,7.9
2016-04-16T23:14:54.364Z,7.9
2016-04-16T23:18:06.872Z,8
2016-04-16T23:21:19.239Z,8.1
2016-04-16T23:24:36.685Z,8.1
2016-04-16T23:27:44.208Z,8.1
2016-04-16T23:30:46.826Z,8.2
2016-04-16T23:33:57.055Z,8.2
2016-04-16T23:37:09.470Z,8.2
2016-04-16T23:40:22.212Z,8.2
2016-04-16T23:43:39.350Z,8.2
2016-04-16T23:46:41.906Z,8.2
2016-04-16T23:49:54.244Z,8.3
2016-04-16T23:53:06.361Z,8.2
2016-04-16T23:56:19.135Z,8.3
2016-04-16T23:59:36.627Z,8.3
